createdAt,value
2022-11-14T00:22:02.527Z,26.00
2022-11-14T00:24:51.707Z,24.50
2022-11-14T00:27:39.874Z,27.25
2022-11-14T00:30:30.551Z,36.25
2022-11-14T00:33:21.727Z,26.25
2022-11-14T00:39:04.380Z,24.25
2022-11-14T00:41:57.423Z,20.50
2022-11-14T00:44:45.661Z,22.25
2022-11-14T00:47:35.459Z,21.50
2022-11-14T00:50:42.147Z,39.00
2022-11-14T00:53:54.385Z,22.00
2022-11-14T00:56:46.198Z,20.00
2022-11-14T00:59:35.224Z,18.00
2022-11-14T01:02:25.004Z,18.00
2022-11-14T01:05:15.095Z,24.25
2022-11-14T01:08:04.622Z,20.75
2022-11-14T01:10:53.444Z,27.75
2022-11-14T01:13:43.760Z,30.00
2022-11-14T01:19:21.906Z,30.25
2022-11-14T01:22:10.560Z,24.00
2022-11-14T01:25:01.627Z,16.50
2022-11-14T01:27:51.173Z,15.00
2022-11-14T01:33:28.072Z,14.00
2022-11-14T01:36:15.878Z,15.50
2022-11-14T01:39:04.887Z,37.00
2022-11-14T01:41:53.930Z,21.00
2022-11-14T01:44:47.378Z,16.00
2022-11-14T01:47:37.035Z,13.50
2022-11-14T01:50:25.979Z,17.25
2022-11-14T01:53:14.876Z,18.50
2022-11-14T01:56:08.578Z,22.75
2022-11-14T01:59:05.396Z,24.00
2022-11-14T02:01:55.469Z,18.00
2022-11-14T02:04:49.874Z,15.33
2022-11-14T02:07:42.156Z,21.00
2022-11-14T02:10:30.388Z,16.00
2022-11-14T02:13:19.151Z,26.00
2022-11-14T02:16:08.588Z,24.00
2022-11-14T02:18:57.683Z,0.00
2022-11-14T02:21:45.792Z,0.00
2022-11-14T02:24:33.497Z,1.00
2022-11-14T02:27:22.839Z,0.00
2022-11-14T02:33:11.566Z,0.00
2022-11-14T02:36:01.195Z,18.50
2022-11-14T02:38:49.826Z,1.33
2022-11-14T02:41:38.021Z,0.00
2022-11-14T02:44:26.692Z,0.00
2022-11-14T02:47:15.790Z,0.00
2022-11-14T02:50:05.439Z,0.00
2022-11-14T02:52:56.549Z,1.50
2022-11-14T02:55:45.746Z,0.00
2022-11-14T02:58:35.424Z,0.00
2022-11-14T03:01:23.351Z,0.00
2022-11-14T03:04:12.250Z,0.00
2022-11-14T03:07:00.140Z,0.00
2022-11-14T03:09:51.538Z,9.00
2022-11-14T03:12:40.911Z,1.00
2022-11-14T03:15:29.197Z,2.00
2022-11-14T03:18:16.912Z,2.50
2022-11-14T03:21:21.260Z,0.00
2022-11-14T03:24:09.577Z,1.00
2022-11-14T03:26:58.937Z,12.00
2022-11-14T03:29:48.189Z,0.00
2022-11-14T03:32:36.691Z,2.50
2022-11-14T03:35:27.402Z,0.00
2022-11-14T03:38:15.567Z,0.00
2022-11-14T03:41:05.092Z,0.00
2022-11-14T03:43:53.397Z,12.00
2022-11-14T03:46:43.361Z,0.00
2022-11-14T03:49:33.747Z,0.00
2022-11-14T03:52:22.764Z,0.50
2022-11-14T03:55:10.909Z,0.00
2022-11-14T03:58:00.815Z,0.00
2022-11-14T04:00:50.133Z,4.00
2022-11-14T04:03:39.204Z,0.00
2022-11-14T04:06:28.023Z,0.00
2022-11-14T04:12:05.041Z,2.00
2022-11-14T04:14:53.166Z,0.00
2022-11-14T04:17:41.901Z,3.50
2022-11-14T04:20:31.866Z,2.00
2022-11-14T04:23:20.401Z,1.50
2022-11-14T04:26:09.302Z,0.00
2022-11-14T04:31:46.310Z,0.00
2022-11-14T04:34:34.120Z,0.00
2022-11-14T04:37:22.010Z,0.00
2022-11-14T04:40:18.150Z,0.00
2022-11-14T04:43:06.208Z,0.50
2022-11-14T04:45:54.149Z,0.00
2022-11-14T04:48:42.118Z,0.00
2022-11-14T04:51:30.723Z,0.00
2022-11-14T04:54:19.325Z,2.50
2022-11-14T04:57:08.497Z,10.50
2022-11-14T04:59:57.982Z,13.00
2022-11-14T05:02:46.254Z,2.00
2022-11-14T05:05:40.699Z,10.75
2022-11-14T05:08:30.887Z,0.00
2022-11-14T05:11:27.954Z,4.00
2022-11-14T05:14:18.201Z,4.00
2022-11-14T05:17:06.306Z,2.50
2022-11-14T05:19:54.348Z,0.00
2022-11-14T05:22:42.154Z,11.67
2022-11-14T05:25:30.393Z,0.00
2022-11-14T05:28:18.619Z,0.67
2022-11-14T05:31:11.165Z,30.75
2022-11-14T05:33:59.196Z,17.50
2022-11-14T05:36:47.164Z,0.00
2022-11-14T05:39:35.199Z,5.50
2022-11-14T05:42:23.290Z,5.00
2022-11-14T05:45:16.346Z,13.50
2022-11-14T05:48:04.834Z,0.00
2022-11-14T05:50:57.537Z,9.00
2022-11-14T05:53:45.854Z,1.50
2022-11-14T05:56:33.935Z,6.00
2022-11-14T06:02:16.262Z,8.00
2022-11-14T06:05:04.707Z,5.33
2022-11-14T06:08:02.039Z,3.50
2022-11-14T06:10:50.239Z,15.75
2022-11-14T06:13:39.968Z,19.00
2022-11-14T06:16:30.236Z,5.00
2022-11-14T06:19:20.676Z,0.00
2022-11-14T06:22:10.102Z,0.00
2022-11-14T06:24:58.238Z,2.67
2022-11-14T06:27:46.237Z,4.00
2022-11-14T06:30:34.562Z,7.33
2022-11-14T06:33:22.994Z,3.00
2022-11-14T06:36:11.745Z,0.00
2022-11-14T06:38:59.836Z,2.50
2022-11-14T06:41:49.445Z,0.00
2022-11-14T06:44:37.447Z,0.00
2022-11-14T06:47:25.318Z,0.50
2022-11-14T06:50:14.466Z,23.75
2022-11-14T06:53:03.693Z,26.75
2022-11-14T06:55:58.252Z,14.50
2022-11-14T06:58:52.786Z,8.67
2022-11-14T07:01:41.456Z,5.00
2022-11-14T07:04:29.344Z,27.67
2022-11-14T07:07:18.574Z,2.00
2022-11-14T07:10:08.953Z,24.00
2022-11-14T07:12:58.527Z,12.00
2022-11-14T07:15:55.898Z,7.00
2022-11-14T07:18:44.199Z,4.50
2022-11-14T07:21:36.682Z,0.00
2022-11-14T07:24:25.044Z,4.50
2022-11-14T07:27:14.140Z,4.67
2022-11-14T07:30:04.229Z,6.00
2022-11-14T07:33:01.618Z,0.00
2022-11-14T07:35:50.155Z,27.75
2022-11-14T07:38:40.199Z,11.25
2022-11-14T07:41:30.771Z,2.00
2022-11-14T07:44:22.584Z,0.50
2022-11-14T07:47:11.170Z,3.50
2022-11-14T07:50:00.596Z,0.00
2022-11-14T07:52:58.078Z,19.50
2022-11-14T07:55:46.464Z,6.00
2022-11-14T07:58:37.264Z,2.50
2022-11-14T08:01:26.467Z,10.00
2022-11-14T08:04:15.047Z,3.33
2022-11-14T08:07:06.717Z,10.00
2022-11-14T08:09:58.228Z,9.75
2022-11-14T08:12:56.275Z,0.50
2022-11-14T08:15:52.980Z,29.00
2022-11-14T08:18:41.358Z,8.33
2022-11-14T08:21:30.684Z,3.50
2022-11-14T08:24:21.291Z,5.00
2022-11-14T08:27:09.458Z,12.00
2022-11-14T08:29:58.688Z,2.50
2022-11-14T08:32:47.122Z,21.50
2022-11-14T08:35:36.330Z,11.25
2022-11-14T08:38:24.401Z,1.50
2022-11-14T08:41:13.369Z,80.00
2022-11-14T08:44:01.779Z,3.50
2022-11-14T08:46:50.683Z,43.00
2022-11-14T08:49:38.757Z,18.33
2022-11-14T08:52:26.627Z,62.75
2022-11-14T08:55:15.337Z,11.75
2022-11-14T08:58:04.180Z,33.67
2022-11-14T09:00:53.512Z,16.00
2022-11-14T09:03:41.848Z,20.25
2022-11-14T09:06:30.070Z,17.00
2022-11-14T09:09:18.646Z,7.25
2022-11-14T09:12:07.084Z,23.50
2022-11-14T09:14:56.005Z,31.50
2022-11-14T09:17:44.158Z,34.25
2022-11-14T09:20:37.432Z,39.00
2022-11-14T09:23:28.562Z,21.33
2022-11-14T09:26:20.008Z,32.50
2022-11-14T09:29:09.546Z,24.00
2022-11-14T09:31:58.426Z,24.50
2022-11-14T09:34:47.780Z,27.25
2022-11-14T09:37:37.304Z,3.50
2022-11-14T09:40:26.160Z,3.00
2022-11-14T09:43:50.543Z,16.25
2022-11-14T09:49:49.546Z,2.00
2022-11-14T09:52:48.739Z,11.50
2022-11-14T09:55:38.771Z,12.33
2022-11-14T09:58:28.740Z,0.00
2022-11-14T10:01:40.220Z,2.00
2022-11-14T10:04:56.653Z,22.25
2022-11-14T10:08:04.066Z,3.00
2022-11-14T10:11:07.754Z,20.00
2022-11-14T10:14:06.601Z,1.50
2022-11-14T10:17:21.991Z,13.00
2022-11-14T10:20:22.404Z,6.50
2022-11-14T10:23:33.019Z,21.00
2022-11-14T10:26:37.017Z,2.00
2022-11-14T10:29:46.466Z,8.00
2022-11-14T10:33:00.257Z,0.50
2022-11-14T10:36:13.751Z,33.75
2022-11-14T10:39:15.949Z,11.00
2022-11-14T10:42:14.773Z,2.00
2022-11-14T10:45:20.405Z,0.00
2022-11-14T10:48:31.496Z,2.00
2022-11-14T10:51:40.230Z,4.00
2022-11-14T10:54:42.668Z,0.00
2022-11-14T10:57:32.917Z,0.00
2022-11-14T11:00:25.200Z,7.50
2022-11-14T11:03:14.020Z,1.00
2022-11-14T11:06:02.137Z,22.00
2022-11-14T11:09:09.129Z,13.33
2022-11-14T11:12:03.811Z,8.50
2022-11-14T11:15:12.986Z,2.00
2022-11-14T11:18:25.074Z,4.00
2022-11-14T11:21:16.423Z,5.00
2022-11-14T11:24:05.264Z,0.00
2022-11-14T11:27:26.517Z,4.50
2022-11-14T11:30:25.345Z,15.00
2022-11-14T11:33:27.603Z,21.67
2022-11-14T11:36:21.192Z,0.00
2022-11-14T11:39:20.572Z,1.00
2022-11-14T11:42:15.557Z,0.00
2022-11-14T11:45:14.728Z,0.50
2022-11-14T11:48:27.806Z,14.00
2022-11-14T11:51:22.289Z,0.00
2022-11-14T11:54:23.215Z,16.75
2022-11-14T11:57:21.919Z,0.00
2022-11-14T12:00:23.930Z,14.67
2022-11-14T12:03:20.305Z,0.00
2022-11-14T12:06:28.604Z,29.50
2022-11-14T12:09:26.797Z,1.50
2022-11-14T12:12:43.566Z,8.00
2022-11-14T12:15:46.314Z,1.50
2022-11-14T12:18:41.632Z,0.00
2022-11-14T12:21:59.794Z,1.33
2022-11-14T12:25:16.212Z,8.25
2022-11-14T12:28:41.210Z,6.00
2022-11-14T12:31:38.417Z,2.00
2022-11-14T12:34:34.375Z,1.00
2022-11-14T12:37:41.660Z,0.00
2022-11-14T12:40:42.850Z,16.00
2022-11-14T12:43:38.455Z,0.00
2022-11-14T12:46:26.968Z,0.00
2022-11-14T12:49:58.765Z,1.00
2022-11-14T12:52:55.499Z,10.00
2022-11-14T12:55:47.485Z,2.00
2022-11-14T12:58:58.606Z,6.00
2022-11-14T13:01:59.371Z,0.00
2022-11-14T13:05:32.565Z,2.00
2022-11-14T13:08:49.035Z,0.00
2022-11-14T13:12:06.480Z,0.00
2022-11-14T13:15:16.785Z,0.50
2022-11-14T13:18:52.983Z,1.00
2022-11-14T13:22:02.285Z,0.00
2022-11-14T13:25:04.850Z,0.50
2022-11-14T13:28:19.120Z,7.00
2022-11-14T13:31:19.412Z,0.00
2022-11-14T13:34:41.135Z,2.00
2022-11-14T13:38:04.125Z,0.00
2022-11-14T13:41:14.610Z,9.33
2022-11-14T13:44:12.127Z,0.00
2022-11-14T13:47:16.943Z,32.50
2022-11-14T13:50:16.193Z,10.00
2022-11-14T13:53:05.144Z,0.00
2022-11-14T13:56:08.488Z,2.00
2022-11-14T14:02:14.427Z,38.33
2022-11-14T14:05:23.699Z,0.00
2022-11-14T14:08:26.488Z,26.50
2022-11-14T14:11:43.056Z,6.00
2022-11-14T14:14:41.709Z,5.00
2022-11-14T14:17:40.698Z,0.00
2022-11-14T14:20:57.600Z,12.67
2022-11-14T14:24:07.347Z,0.00
2022-11-14T14:27:01.792Z,0.00
2022-11-14T14:29:58.112Z,0.00
2022-11-14T14:33:07.695Z,2.00
2022-11-14T14:35:58.260Z,15.00
2022-11-14T14:38:47.534Z,4.00
2022-11-14T14:41:38.441Z,0.00
2022-11-14T14:44:57.050Z,1.50
2022-11-14T14:47:48.851Z,0.00
2022-11-14T14:50:51.647Z,0.00
2022-11-14T14:53:42.044Z,15.33
2022-11-14T14:56:31.402Z,2.00
2022-11-14T14:59:22.211Z,2.00
2022-11-14T15:02:19.517Z,37.00
2022-11-14T15:05:09.047Z,34.00
2022-11-14T15:08:02.779Z,36.00
2022-11-14T15:10:52.701Z,4.00
2022-11-14T15:13:43.323Z,1.50
2022-11-14T15:16:34.759Z,0.00
2022-11-14T15:19:29.125Z,2.50
2022-11-14T15:22:18.833Z,0.00
2022-11-14T15:25:16.207Z,0.00
2022-11-14T15:28:09.614Z,1.33
2022-11-14T15:31:06.628Z,0.00
2022-11-14T15:34:23.257Z,0.00
2022-11-14T15:37:25.410Z,5.33
2022-11-14T15:40:25.810Z,2.00
2022-11-14T15:43:43.524Z,0.00
2022-11-14T15:46:38.047Z,0.00
2022-11-14T15:49:29.995Z,0.00
2022-11-14T15:52:30.751Z,0.00
2022-11-14T15:55:26.429Z,2.00
2022-11-14T15:58:33.003Z,0.00
2022-11-14T16:01:27.428Z,7.00
2022-11-14T16:04:21.631Z,2.00
2022-11-14T16:07:13.298Z,6.67
2022-11-14T16:10:02.802Z,0.50
2022-11-14T16:13:00.077Z,0.00
2022-11-14T16:15:49.905Z,41.50
2022-11-14T16:18:46.282Z,35.00
2022-11-14T16:21:38.158Z,34.67
2022-11-14T16:24:33.505Z,36.33
2022-11-14T16:27:22.985Z,27.75
2022-11-14T16:30:17.115Z,33.67
2022-11-14T16:33:07.255Z,34.00
2022-11-14T16:35:59.058Z,34.00
2022-11-14T16:38:52.085Z,37.00
2022-11-14T16:44:39.030Z,37.50
2022-11-14T16:47:34.745Z,36.75
2022-11-14T16:50:24.552Z,37.33
2022-11-14T16:53:14.548Z,31.50
2022-11-14T16:56:03.243Z,33.50
2022-11-14T16:58:57.062Z,35.25
2022-11-14T17:01:49.405Z,34.00
2022-11-14T17:04:39.129Z,39.25
2022-11-14T17:07:27.594Z,42.33
2022-11-14T17:10:16.381Z,41.50
2022-11-14T17:13:06.774Z,41.25
2022-11-14T17:15:57.024Z,36.50
2022-11-14T17:18:47.211Z,34.25
2022-11-14T17:21:35.895Z,28.00
2022-11-14T17:24:30.073Z,38.75
2022-11-14T17:27:21.156Z,35.25
2022-11-14T17:30:15.048Z,36.50
2022-11-14T17:33:04.160Z,28.75
2022-11-14T17:35:54.888Z,35.50
2022-11-14T17:38:44.528Z,32.50
2022-11-14T17:41:32.658Z,34.00
2022-11-14T17:44:20.770Z,33.00
2022-11-14T17:47:10.231Z,35.00
2022-11-14T17:49:58.078Z,33.25
2022-11-14T17:52:46.802Z,33.67
2022-11-14T17:55:35.669Z,36.75
2022-11-14T17:58:24.443Z,32.25
2022-11-14T18:01:15.216Z,38.00
2022-11-14T18:04:06.435Z,37.50
2022-11-14T18:06:55.765Z,34.50
2022-11-14T18:09:44.803Z,40.25
2022-11-14T18:12:32.726Z,39.00
2022-11-14T18:15:27.588Z,36.00
2022-11-14T18:18:16.480Z,31.33
2022-11-14T18:21:21.006Z,29.50
2022-11-14T18:24:15.455Z,32.00
2022-11-14T18:27:03.617Z,38.00
2022-11-14T18:29:52.397Z,40.00
2022-11-14T18:35:29.096Z,31.25
2022-11-14T18:38:17.233Z,32.75
2022-11-14T18:41:10.377Z,35.75
2022-11-14T18:43:59.398Z,31.50
2022-11-14T18:46:47.615Z,28.00
2022-11-14T18:49:35.517Z,28.50
2022-11-14T18:52:24.473Z,34.75
2022-11-14T18:55:12.587Z,38.75
2022-11-14T18:58:00.321Z,28.75
2022-11-14T19:00:48.724Z,35.25
2022-11-14T19:03:36.446Z,33.00
2022-11-14T19:06:24.160Z,30.67
2022-11-14T19:09:19.743Z,30.50
2022-11-14T19:12:20.907Z,34.25
2022-11-14T19:15:09.152Z,35.75
2022-11-14T19:17:57.897Z,0.50
2022-11-14T19:20:48.723Z,36.50
2022-11-14T19:23:37.121Z,31.00
2022-11-14T19:26:25.772Z,29.75
2022-11-14T19:29:16.944Z,32.00
2022-11-14T19:32:04.799Z,34.67
2022-11-14T19:34:53.652Z,34.25
2022-11-14T19:37:41.887Z,27.50
2022-11-14T19:40:31.108Z,35.00
2022-11-14T19:43:21.430Z,32.33
2022-11-14T19:46:11.072Z,29.75
2022-11-14T19:49:04.219Z,32.50
2022-11-14T19:51:52.643Z,25.50
2022-11-14T19:54:40.788Z,32.50
2022-11-14T19:57:32.489Z,33.75
2022-11-14T20:00:21.672Z,36.50
2022-11-14T20:03:09.669Z,31.33
2022-11-14T20:05:58.048Z,35.75
2022-11-14T20:08:46.452Z,26.25
2022-11-14T20:11:35.117Z,28.67
2022-11-14T20:14:23.877Z,26.75
2022-11-14T20:17:11.876Z,33.50
2022-11-14T20:20:00.120Z,32.50
2022-11-14T20:22:48.899Z,28.75
2022-11-14T20:25:41.031Z,36.00
2022-11-14T20:28:30.778Z,31.50
2022-11-14T20:31:22.558Z,34.25
2022-11-14T20:34:12.559Z,32.33
2022-11-14T20:37:11.165Z,34.25
2022-11-14T20:40:01.059Z,41.75
2022-11-14T20:42:51.497Z,30.75
2022-11-14T20:45:40.155Z,38.75
2022-11-14T20:48:30.477Z,38.00
2022-11-14T20:51:21.467Z,38.50
2022-11-14T20:54:10.855Z,45.67
2022-11-14T20:56:58.752Z,34.50
2022-11-14T20:59:46.997Z,32.75
2022-11-14T21:02:36.910Z,33.50
2022-11-14T21:05:25.741Z,28.50
2022-11-14T21:08:15.874Z,36.50
2022-11-14T21:11:08.300Z,41.00
2022-11-14T21:13:59.755Z,32.50
2022-11-14T21:16:50.020Z,35.00
2022-11-14T21:19:39.125Z,30.75
2022-11-14T21:22:27.340Z,27.00
2022-11-14T21:25:15.578Z,42.75
2022-11-14T21:28:03.350Z,73.50
2022-11-14T21:30:51.015Z,47.75
2022-11-14T21:33:40.120Z,28.00
2022-11-14T21:36:44.370Z,26.50
2022-11-14T21:39:34.306Z,30.00
2022-11-14T21:42:23.177Z,29.50
2022-11-14T21:45:12.763Z,34.50
2022-11-14T21:48:01.028Z,36.00
2022-11-14T21:50:50.175Z,33.67
2022-11-14T21:53:38.725Z,34.67
2022-11-14T21:56:44.870Z,81.00
2022-11-14T21:59:34.421Z,49.25
2022-11-14T22:02:40.842Z,34.75
2022-11-14T22:05:29.562Z,34.50
2022-11-14T22:08:18.028Z,31.25
2022-11-14T22:11:07.013Z,26.25
2022-11-14T22:13:55.978Z,24.50
2022-11-14T22:16:45.196Z,33.75
2022-11-14T22:19:33.460Z,27.75
2022-11-14T22:22:22.835Z,29.33
2022-11-14T22:25:11.816Z,26.00
2022-11-14T22:28:00.790Z,50.00
2022-11-14T22:30:49.739Z,38.25
2022-11-14T22:33:45.691Z,27.25
2022-11-14T22:36:37.238Z,25.75
2022-11-14T22:39:26.248Z,22.50
2022-11-14T22:42:14.098Z,28.33
2022-11-14T22:45:01.917Z,34.00
2022-11-14T22:47:50.988Z,34.75
2022-11-14T22:50:39.228Z,34.00
2022-11-14T22:53:29.254Z,32.67
2022-11-14T22:56:20.855Z,29.00
2022-11-14T22:59:09.858Z,32.50
2022-11-14T23:01:58.874Z,32.00
2022-11-14T23:04:47.724Z,34.00
2022-11-14T23:07:36.559Z,32.25
2022-11-14T23:10:24.655Z,31.50
2022-11-14T23:13:13.630Z,33.00
2022-11-14T23:16:02.459Z,46.00
2022-11-14T23:18:53.832Z,33.25
2022-11-14T23:21:43.529Z,32.50
2022-11-14T23:24:31.355Z,33.00
2022-11-14T23:27:19.043Z,27.75
2022-11-14T23:30:07.572Z,27.33
2022-11-14T23:33:00.082Z,29.00
2022-11-14T23:38:39.152Z,40.50
2022-11-14T23:41:28.114Z,41.67
2022-11-14T23:44:16.068Z,39.75
2022-11-14T23:47:04.302Z,30.33
2022-11-14T23:49:52.109Z,98.50
2022-11-14T23:52:40.052Z,47.50
2022-11-14T23:55:29.027Z,40.50
2022-11-14T23:58:17.618Z,36.75
